sensor_id;sensor_type;location;lat;lon;timestamp;P1;durP1;ratioP1;P2;durP2;ratioP2
32333;SDS011;18810;53.040;8.850;2023-07-24T00:01:45;6.15;;;5.25;;
32333;SDS011;18810;53.040;8.850;2023-07-24T00:04:11;8.63;;;6.40;;
32333;SDS011;18810;53.040;8.850;2023-07-24T00:06:36;7.57;;;6.00;;
32333;SDS011;18810;53.040;8.850;2023-07-24T00:09:02;7.93;;;5.75;;
32333;SDS011;18810;53.040;8.850;2023-07-24T00:11:28;6.93;;;5.95;;
32333;SDS011;18810;53.040;8.850;2023-07-24T00:13:53;6.25;;;5.50;;
32333;SDS011;18810;53.040;8.850;2023-07-24T00:16:19;6.15;;;5.55;;
32333;SDS011;18810;53.040;8.850;2023-07-24T00:18:45;7.45;;;6.00;;
32333;SDS011;18810;53.040;8.850;2023-07-24T00:21:11;7.82;;;5.88;;
32333;SDS011;18810;53.040;8.850;2023-07-24T00:23:38;6.90;;;6.05;;
32333;SDS011;18810;53.040;8.850;2023-07-24T00:26:04;7.68;;;5.60;;
32333;SDS011;18810;53.040;8.850;2023-07-24T00:28:29;7.38;;;5.93;;
32333;SDS011;18810;53.040;8.850;2023-07-24T00:30:55;7.10;;;5.75;;
32333;SDS011;18810;53.040;8.850;2023-07-24T00:33:21;6.18;;;5.57;;
32333;SDS011;18810;53.040;8.850;2023-07-24T00:35:47;7.88;;;5.93;;
32333;SDS011;18810;53.040;8.850;2023-07-24T00:38:13;6.65;;;5.20;;
32333;SDS011;18810;53.040;8.850;2023-07-24T00:40:38;5.85;;;5.20;;
32333;SDS011;18810;53.040;8.850;2023-07-24T00:43:04;5.80;;;5.20;;
32333;SDS011;18810;53.040;8.850;2023-07-24T00:45:30;8.65;;;5.88;;
32333;SDS011;18810;53.040;8.850;2023-07-24T00:47:55;6.05;;;4.80;;
32333;SDS011;18810;53.040;8.850;2023-07-24T00:50:21;7.50;;;5.10;;
32333;SDS011;18810;53.040;8.850;2023-07-24T00:52:48;6.60;;;5.15;;
32333;SDS011;18810;53.040;8.850;2023-07-24T00:55:13;5.97;;;4.90;;
32333;SDS011;18810;53.040;8.850;2023-07-24T00:57:41;7.05;;;5.10;;
32333;SDS011;18810;53.040;8.850;2023-07-24T01:00:08;6.80;;;5.03;;
32333;SDS011;18810;53.040;8.850;2023-07-24T01:02:35;8.23;;;4.75;;
32333;SDS011;18810;53.040;8.850;2023-07-24T01:05:02;5.47;;;4.57;;
32333;SDS011;18810;53.040;8.850;2023-07-24T01:07:28;6.22;;;4.80;;
32333;SDS011;18810;53.040;8.850;2023-07-24T01:09:55;5.30;;;4.45;;
32333;SDS011;18810;53.040;8.850;2023-07-24T01:12:42;5.55;;;4.57;;
32333;SDS011;18810;53.040;8.850;2023-07-24T01:18:06;6.28;;;4.75;;
32333;SDS011;18810;53.040;8.850;2023-07-24T01:20:35;5.80;;;4.95;;
32333;SDS011;18810;53.040;8.850;2023-07-24T01:25:57;5.45;;;4.57;;
32333;SDS011;18810;53.040;8.850;2023-07-24T01:28:25;6.38;;;4.68;;
32333;SDS011;18810;53.040;8.850;2023-07-24T01:30:51;6.63;;;4.63;;
32333;SDS011;18810;53.040;8.850;2023-07-24T01:33:17;5.53;;;4.65;;
32333;SDS011;18810;53.040;8.850;2023-07-24T01:35:44;6.50;;;5.15;;
32333;SDS011;18810;53.040;8.850;2023-07-24T01:38:13;8.20;;;4.80;;
32333;SDS011;18810;53.040;8.850;2023-07-24T01:40:42;6.25;;;4.95;;
32333;SDS011;18810;53.040;8.850;2023-07-24T01:43:08;6.18;;;4.93;;
32333;SDS011;18810;53.040;8.850;2023-07-24T01:45:35;5.85;;;5.10;;
32333;SDS011;18810;53.040;8.850;2023-07-24T01:48:01;6.93;;;4.90;;
32333;SDS011;18810;53.040;8.850;2023-07-24T01:50:29;7.47;;;5.57;;
32333;SDS011;18810;53.040;8.850;2023-07-24T01:52:54;5.93;;;5.32;;
32333;SDS011;18810;53.040;8.850;2023-07-24T01:55:20;6.50;;;5.20;;
32333;SDS011;18810;53.040;8.850;2023-07-24T01:57:46;8.52;;;6.18;;
32333;SDS011;18810;53.040;8.850;2023-07-24T02:00:11;10.45;;;5.38;;
32333;SDS011;18810;53.040;8.850;2023-07-24T02:02:37;6.90;;;5.35;;
32333;SDS011;18810;53.040;8.850;2023-07-24T02:05:03;6.88;;;5.43;;
32333;SDS011;18810;53.040;8.850;2023-07-24T02:07:29;7.45;;;5.75;;
32333;SDS011;18810;53.040;8.850;2023-07-24T02:09:55;7.75;;;5.60;;
32333;SDS011;18810;53.040;8.850;2023-07-24T02:12:21;5.82;;;5.22;;
32333;SDS011;18810;53.040;8.850;2023-07-24T02:14:47;9.20;;;5.43;;
32333;SDS011;18810;53.040;8.850;2023-07-24T02:17:15;8.10;;;5.78;;
32333;SDS011;18810;53.040;8.850;2023-07-24T02:19:41;6.75;;;5.82;;
32333;SDS011;18810;53.040;8.850;2023-07-24T02:22:07;8.68;;;6.00;;
32333;SDS011;18810;53.040;8.850;2023-07-24T02:24:32;8.13;;;5.95;;
32333;SDS011;18810;53.040;8.850;2023-07-24T02:26:58;7.80;;;5.72;;
32333;SDS011;18810;53.040;8.850;2023-07-24T02:29:24;8.30;;;6.18;;
32333;SDS011;18810;53.040;8.850;2023-07-24T02:31:50;7.45;;;6.20;;
32333;SDS011;18810;53.040;8.850;2023-07-24T02:34:16;7.68;;;5.57;;
32333;SDS011;18810;53.040;8.850;2023-07-24T02:36:41;10.02;;;6.75;;
32333;SDS011;18810;53.040;8.850;2023-07-24T02:39:07;9.60;;;5.90;;
32333;SDS011;18810;53.040;8.850;2023-07-24T02:41:33;8.80;;;5.63;;
32333;SDS011;18810;53.040;8.850;2023-07-24T02:43:59;9.27;;;6.50;;
32333;SDS011;18810;53.040;8.850;2023-07-24T02:46:25;7.72;;;6.47;;
32333;SDS011;18810;53.040;8.850;2023-07-24T02:48:51;8.35;;;6.72;;
32333;SDS011;18810;53.040;8.850;2023-07-24T02:51:17;8.48;;;6.70;;
32333;SDS011;18810;53.040;8.850;2023-07-24T02:53:43;9.55;;;6.45;;
32333;SDS011;18810;53.040;8.850;2023-07-24T02:56:08;10.05;;;6.85;;
32333;SDS011;18810;53.040;8.850;2023-07-24T02:58:34;8.25;;;6.47;;
32333;SDS011;18810;53.040;8.850;2023-07-24T03:01:03;12.40;;;6.85;;
32333;SDS011;18810;53.040;8.850;2023-07-24T03:03:31;10.00;;;7.60;;
32333;SDS011;18810;53.040;8.850;2023-07-24T03:05:59;9.07;;;7.10;;
32333;SDS011;18810;53.040;8.850;2023-07-24T03:08:25;9.10;;;6.78;;
32333;SDS011;18810;53.040;8.850;2023-07-24T03:10:51;9.15;;;6.75;;
32333;SDS011;18810;53.040;8.850;2023-07-24T03:13:16;8.13;;;6.97;;
32333;SDS011;18810;53.040;8.850;2023-07-24T03:15:42;7.63;;;6.55;;
32333;SDS011;18810;53.040;8.850;2023-07-24T03:18:07;8.77;;;6.40;;
32333;SDS011;18810;53.040;8.850;2023-07-24T03:20:33;9.07;;;6.82;;
32333;SDS011;18810;53.040;8.850;2023-07-24T03:22:59;12.45;;;7.88;;
32333;SDS011;18810;53.040;8.850;2023-07-24T03:25:24;9.52;;;7.40;;
32333;SDS011;18810;53.040;8.850;2023-07-24T03:27:50;8.82;;;6.40;;
32333;SDS011;18810;53.040;8.850;2023-07-24T03:30:15;9.25;;;6.93;;
32333;SDS011;18810;53.040;8.850;2023-07-24T03:32:41;8.63;;;7.00;;
32333;SDS011;18810;53.040;8.850;2023-07-24T03:35:07;7.88;;;6.68;;
32333;SDS011;18810;53.040;8.850;2023-07-24T03:37:36;11.85;;;7.38;;
32333;SDS011;18810;53.040;8.850;2023-07-24T03:40:01;10.90;;;7.30;;
32333;SDS011;18810;53.040;8.850;2023-07-24T03:42:28;10.30;;;6.90;;
32333;SDS011;18810;53.040;8.850;2023-07-24T03:44:55;10.02;;;6.63;;
32333;SDS011;18810;53.040;8.850;2023-07-24T03:47:22;11.20;;;7.45;;
32333;SDS011;18810;53.040;8.850;2023-07-24T03:49:49;9.82;;;7.05;;
32333;SDS011;18810;53.040;8.850;2023-07-24T03:52:15;9.05;;;6.82;;
32333;SDS011;18810;53.040;8.850;2023-07-24T03:54:41;6.97;;;6.13;;
32333;SDS011;18810;53.040;8.850;2023-07-24T03:57:06;7.15;;;6.00;;
32333;SDS011;18810;53.040;8.850;2023-07-24T03:59:32;9.05;;;6.20;;
32333;SDS011;18810;53.040;8.850;2023-07-24T04:01:58;8.77;;;6.38;;
32333;SDS011;18810;53.040;8.850;2023-07-24T04:04:23;6.22;;;5.45;;
32333;SDS011;18810;53.040;8.850;2023-07-24T04:06:49;6.50;;;5.30;;
32333;SDS011;18810;53.040;8.850;2023-07-24T04:09:15;6.60;;;5.32;;
32333;SDS011;18810;53.040;8.850;2023-07-24T04:11:41;7.35;;;5.53;;
32333;SDS011;18810;53.040;8.850;2023-07-24T04:14:07;5.97;;;5.38;;
32333;SDS011;18810;53.040;8.850;2023-07-24T04:16:33;8.18;;;5.55;;
32333;SDS011;18810;53.040;8.850;2023-07-24T04:18:59;7.32;;;5.25;;
32333;SDS011;18810;53.040;8.850;2023-07-24T04:21:25;6.88;;;5.30;;
32333;SDS011;18810;53.040;8.850;2023-07-24T04:23:51;7.63;;;5.13;;
32333;SDS011;18810;53.040;8.850;2023-07-24T04:26:18;6.68;;;4.70;;
32333;SDS011;18810;53.040;8.850;2023-07-24T04:28:44;5.40;;;4.60;;
32333;SDS011;18810;53.040;8.850;2023-07-24T04:31:10;6.28;;;4.63;;
32333;SDS011;18810;53.040;8.850;2023-07-24T04:33:35;8.02;;;4.70;;
32333;SDS011;18810;53.040;8.850;2023-07-24T04:36:01;9.18;;;4.78;;
32333;SDS011;18810;53.040;8.850;2023-07-24T04:38:26;6.15;;;4.47;;
32333;SDS011;18810;53.040;8.850;2023-07-24T04:40:52;7.18;;;4.53;;
32333;SDS011;18810;53.040;8.850;2023-07-24T04:43:18;4.72;;;4.10;;
32333;SDS011;18810;53.040;8.850;2023-07-24T04:45:43;6.00;;;4.93;;
32333;SDS011;18810;53.040;8.850;2023-07-24T04:48:09;6.43;;;4.25;;
32333;SDS011;18810;53.040;8.850;2023-07-24T04:50:35;5.18;;;4.15;;
32333;SDS011;18810;53.040;8.850;2023-07-24T04:53:01;5.03;;;3.90;;
32333;SDS011;18810;53.040;8.850;2023-07-24T04:55:26;4.68;;;4.22;;
32333;SDS011;18810;53.040;8.850;2023-07-24T04:57:52;4.65;;;4.15;;
32333;SDS011;18810;53.040;8.850;2023-07-24T05:00:17;5.00;;;4.50;;
32333;SDS011;18810;53.040;8.850;2023-07-24T05:02:43;4.72;;;3.88;;
32333;SDS011;18810;53.040;8.850;2023-07-24T05:05:09;5.63;;;4.55;;
32333;SDS011;18810;53.040;8.850;2023-07-24T05:07:34;4.50;;;4.10;;
32333;SDS011;18810;53.040;8.850;2023-07-24T05:10:00;4.93;;;4.22;;
32333;SDS011;18810;53.040;8.850;2023-07-24T05:12:26;4.38;;;3.95;;
32333;SDS011;18810;53.040;8.850;2023-07-24T05:14:52;5.05;;;4.40;;
32333;SDS011;18810;53.040;8.850;2023-07-24T05:17:18;5.72;;;3.95;;
32333;SDS011;18810;53.040;8.850;2023-07-24T05:19:43;5.07;;;4.40;;
32333;SDS011;18810;53.040;8.850;2023-07-24T05:22:09;5.70;;;4.15;;
32333;SDS011;18810;53.040;8.850;2023-07-24T05:24:38;5.47;;;4.60;;
32333;SDS011;18810;53.040;8.850;2023-07-24T05:27:04;6.80;;;4.38;;
32333;SDS011;18810;53.040;8.850;2023-07-24T05:29:30;4.53;;;4.10;;
32333;SDS011;18810;53.040;8.850;2023-07-24T05:31:56;7.65;;;4.45;;
32333;SDS011;18810;53.040;8.850;2023-07-24T05:34:23;4.38;;;3.97;;
32333;SDS011;18810;53.040;8.850;2023-07-24T05:36:49;5.10;;;4.35;;
32333;SDS011;18810;53.040;8.850;2023-07-24T05:39:15;6.35;;;4.45;;
32333;SDS011;18810;53.040;8.850;2023-07-24T05:41:40;4.43;;;4.00;;
32333;SDS011;18810;53.040;8.850;2023-07-24T05:44:06;5.28;;;4.10;;
32333;SDS011;18810;53.040;8.850;2023-07-24T05:46:32;4.40;;;3.88;;
32333;SDS011;18810;53.040;8.850;2023-07-24T05:48:57;6.70;;;4.25;;
32333;SDS011;18810;53.040;8.850;2023-07-24T05:51:25;5.38;;;3.80;;
32333;SDS011;18810;53.040;8.850;2023-07-24T05:53:50;5.43;;;4.03;;
32333;SDS011;18810;53.040;8.850;2023-07-24T05:56:16;4.70;;;4.30;;
32333;SDS011;18810;53.040;8.850;2023-07-24T05:58:41;5.85;;;4.38;;
32333;SDS011;18810;53.040;8.850;2023-07-24T06:01:07;6.50;;;4.30;;
32333;SDS011;18810;53.040;8.850;2023-07-24T06:03:35;4.47;;;4.07;;
32333;SDS011;18810;53.040;8.850;2023-07-24T06:06:01;6.30;;;4.95;;
32333;SDS011;18810;53.040;8.850;2023-07-24T06:08:27;5.65;;;5.15;;
32333;SDS011;18810;53.040;8.850;2023-07-24T06:10:52;6.45;;;4.40;;
32333;SDS011;18810;53.040;8.850;2023-07-24T06:13:18;5.70;;;4.70;;
32333;SDS011;18810;53.040;8.850;2023-07-24T06:15:46;5.75;;;4.47;;
32333;SDS011;18810;53.040;8.850;2023-07-24T06:18:13;7.97;;;5.50;;
32333;SDS011;18810;53.040;8.850;2023-07-24T06:20:38;8.07;;;5.60;;
32333;SDS011;18810;53.040;8.850;2023-07-24T06:23:04;5.00;;;4.50;;
32333;SDS011;18810;53.040;8.850;2023-07-24T06:25:30;6.18;;;4.72;;
32333;SDS011;18810;53.040;8.850;2023-07-24T06:27:56;6.65;;;5.30;;
32333;SDS011;18810;53.040;8.850;2023-07-24T06:30:22;5.95;;;5.05;;
32333;SDS011;18810;53.040;8.850;2023-07-24T06:32:48;7.03;;;5.18;;
32333;SDS011;18810;53.040;8.850;2023-07-24T06:35:13;5.70;;;4.95;;
32333;SDS011;18810;53.040;8.850;2023-07-24T06:37:39;6.20;;;5.60;;
32333;SDS011;18810;53.040;8.850;2023-07-24T06:40:05;7.60;;;5.78;;
32333;SDS011;18810;53.040;8.850;2023-07-24T06:42:32;6.20;;;5.57;;
32333;SDS011;18810;53.040;8.850;2023-07-24T06:44:58;7.45;;;5.45;;
32333;SDS011;18810;53.040;8.850;2023-07-24T06:47:23;6.75;;;6.00;;
32333;SDS011;18810;53.040;8.850;2023-07-24T06:49:49;6.80;;;6.03;;
32333;SDS011;18810;53.040;8.850;2023-07-24T06:52:15;7.43;;;6.50;;
32333;SDS011;18810;53.040;8.850;2023-07-24T06:54:40;9.13;;;6.25;;
32333;SDS011;18810;53.040;8.850;2023-07-24T06:57:06;8.38;;;7.43;;
32333;SDS011;18810;53.040;8.850;2023-07-24T06:59:32;10.63;;;6.78;;
32333;SDS011;18810;53.040;8.850;2023-07-24T07:01:58;10.40;;;7.40;;
32333;SDS011;18810;53.040;8.850;2023-07-24T07:04:23;8.18;;;6.97;;
32333;SDS011;18810;53.040;8.850;2023-07-24T07:06:49;7.18;;;6.15;;
32333;SDS011;18810;53.040;8.850;2023-07-24T07:09:14;8.55;;;6.20;;
32333;SDS011;18810;53.040;8.850;2023-07-24T07:11:40;7.88;;;6.47;;
32333;SDS011;18810;53.040;8.850;2023-07-24T07:14:08;10.50;;;7.13;;
32333;SDS011;18810;53.040;8.850;2023-07-24T07:16:34;8.45;;;6.30;;
32333;SDS011;18810;53.040;8.850;2023-07-24T07:18:59;10.10;;;8.10;;
32333;SDS011;18810;53.040;8.850;2023-07-24T07:21:25;10.82;;;8.15;;
32333;SDS011;18810;53.040;8.850;2023-07-24T07:23:51;8.75;;;7.80;;
32333;SDS011;18810;53.040;8.850;2023-07-24T07:26:16;10.85;;;8.95;;
32333;SDS011;18810;53.040;8.850;2023-07-24T07:28:42;9.25;;;8.32;;
32333;SDS011;18810;53.040;8.850;2023-07-24T07:31:09;11.48;;;8.52;;
32333;SDS011;18810;53.040;8.850;2023-07-24T07:33:35;11.20;;;9.02;;
32333;SDS011;18810;53.040;8.850;2023-07-24T07:36:01;9.70;;;8.35;;
32333;SDS011;18810;53.040;8.850;2023-07-24T07:38:28;9.50;;;8.48;;
32333;SDS011;18810;53.040;8.850;2023-07-24T07:40:54;10.95;;;8.25;;
32333;SDS011;18810;53.040;8.850;2023-07-24T07:43:20;12.35;;;9.68;;
32333;SDS011;18810;53.040;8.850;2023-07-24T07:45:46;11.27;;;9.88;;
32333;SDS011;18810;53.040;8.850;2023-07-24T07:48:12;10.00;;;9.00;;
32333;SDS011;18810;53.040;8.850;2023-07-24T07:50:37;11.02;;;9.77;;
32333;SDS011;18810;53.040;8.850;2023-07-24T07:53:03;13.60;;;10.20;;
32333;SDS011;18810;53.040;8.850;2023-07-24T07:55:29;12.90;;;10.40;;
32333;SDS011;18810;53.040;8.850;2023-07-24T07:57:54;11.95;;;9.02;;
32333;SDS011;18810;53.040;8.850;2023-07-24T08:00:20;11.13;;;9.30;;
32333;SDS011;18810;53.040;8.850;2023-07-24T08:02:46;9.30;;;8.27;;
32333;SDS011;18810;53.040;8.850;2023-07-24T08:05:11;11.15;;;9.18;;
32333;SDS011;18810;53.040;8.850;2023-07-24T08:07:37;11.18;;;9.27;;
32333;SDS011;18810;53.040;8.850;2023-07-24T08:10:03;12.50;;;8.82;;
32333;SDS011;18810;53.040;8.850;2023-07-24T08:12:29;9.77;;;8.77;;
32333;SDS011;18810;53.040;8.850;2023-07-24T08:14:55;10.52;;;9.50;;
32333;SDS011;18810;53.040;8.850;2023-07-24T08:17:21;10.75;;;8.65;;
32333;SDS011;18810;53.040;8.850;2023-07-24T08:19:47;11.30;;;8.07;;
32333;SDS011;18810;53.040;8.850;2023-07-24T08:22:12;9.05;;;7.85;;
32333;SDS011;18810;53.040;8.850;2023-07-24T08:24:38;9.25;;;8.35;;
32333;SDS011;18810;53.040;8.850;2023-07-24T08:27:04;9.75;;;7.57;;
32333;SDS011;18810;53.040;8.850;2023-07-24T08:29:30;9.95;;;8.55;;
32333;SDS011;18810;53.040;8.850;2023-07-24T08:31:55;9.07;;;7.15;;
32333;SDS011;18810;53.040;8.850;2023-07-24T08:34:21;10.60;;;8.65;;
32333;SDS011;18810;53.040;8.850;2023-07-24T08:36:47;8.80;;;8.00;;
32333;SDS011;18810;53.040;8.850;2023-07-24T08:39:13;8.68;;;7.80;;
32333;SDS011;18810;53.040;8.850;2023-07-24T08:41:38;10.57;;;8.93;;
32333;SDS011;18810;53.040;8.850;2023-07-24T08:44:07;10.10;;;9.10;;
32333;SDS011;18810;53.040;8.850;2023-07-24T08:46:35;9.88;;;8.98;;
32333;SDS011;18810;53.040;8.850;2023-07-24T08:49:06;11.30;;;9.43;;
32333;SDS011;18810;53.040;8.850;2023-07-24T08:51:36;10.68;;;9.65;;
32333;SDS011;18810;53.040;8.850;2023-07-24T08:54:03;12.27;;;10.45;;
32333;SDS011;18810;53.040;8.850;2023-07-24T08:56:29;10.55;;;9.43;;
32333;SDS011;18810;53.040;8.850;2023-07-24T08:58:55;11.82;;;10.65;;
32333;SDS011;18810;53.040;8.850;2023-07-24T09:01:21;10.85;;;9.63;;
32333;SDS011;18810;53.040;8.850;2023-07-24T09:03:47;13.43;;;10.18;;
32333;SDS011;18810;53.040;8.850;2023-07-24T09:06:12;12.45;;;11.20;;
32333;SDS011;18810;53.040;8.850;2023-07-24T09:08:39;10.07;;;9.07;;
32333;SDS011;18810;53.040;8.850;2023-07-24T09:11:06;10.20;;;9.20;;
32333;SDS011;18810;53.040;8.850;2023-07-24T09:13:34;9.98;;;8.65;;
32333;SDS011;18810;53.040;8.850;2023-07-24T09:16:01;8.60;;;7.60;;
32333;SDS011;18810;53.040;8.850;2023-07-24T09:18:27;8.00;;;7.20;;
32333;SDS011;18810;53.040;8.850;2023-07-24T09:21:07;7.90;;;7.10;;
32333;SDS011;18810;53.040;8.850;2023-07-24T09:23:33;8.05;;;7.25;;
32333;SDS011;18810;53.040;8.850;2023-07-24T09:26:04;7.60;;;6.75;;
32333;SDS011;18810;53.040;8.850;2023-07-24T09:28:31;6.63;;;6.03;;
32333;SDS011;18810;53.040;8.850;2023-07-24T09:30:58;6.00;;;5.40;;
32333;SDS011;18810;53.040;8.850;2023-07-24T09:33:36;6.50;;;5.22;;
32333;SDS011;18810;53.040;8.850;2023-07-24T09:36:03;6.82;;;4.90;;
32333;SDS011;18810;53.040;8.850;2023-07-24T09:38:32;7.07;;;4.65;;
32333;SDS011;18810;53.040;8.850;2023-07-24T09:40:57;4.38;;;3.95;;
32333;SDS011;18810;53.040;8.850;2023-07-24T09:43:26;5.45;;;4.55;;
32333;SDS011;18810;53.040;8.850;2023-07-24T09:45:53;4.53;;;4.13;;
32333;SDS011;18810;53.040;8.850;2023-07-24T09:48:22;6.25;;;4.82;;
32333;SDS011;18810;53.040;8.850;2023-07-24T09:50:52;5.07;;;4.60;;
32333;SDS011;18810;53.040;8.850;2023-07-24T09:56:17;7.30;;;5.13;;
32333;SDS011;18810;53.040;8.850;2023-07-24T09:58:43;5.65;;;4.90;;
32333;SDS011;18810;53.040;8.850;2023-07-24T10:01:10;6.68;;;5.93;;
32333;SDS011;18810;53.040;8.850;2023-07-24T10:03:40;6.15;;;5.57;;
32333;SDS011;18810;53.040;8.850;2023-07-24T10:06:13;6.65;;;6.05;;
32333;SDS011;18810;53.040;8.850;2023-07-24T10:08:43;6.73;;;5.70;;
32333;SDS011;18810;53.040;8.850;2023-07-24T10:11:09;6.78;;;5.35;;
32333;SDS011;18810;53.040;8.850;2023-07-24T10:13:37;5.50;;;5.00;;
32333;SDS011;18810;53.040;8.850;2023-07-24T10:16:03;5.45;;;4.95;;
32333;SDS011;18810;53.040;8.850;2023-07-24T10:18:31;5.55;;;5.05;;
32333;SDS011;18810;53.040;8.850;2023-07-24T10:21:05;5.13;;;4.40;;
32333;SDS011;18810;53.040;8.850;2023-07-24T10:23:35;5.40;;;4.90;;
32333;SDS011;18810;53.040;8.850;2023-07-24T10:26:05;4.93;;;4.53;;
32333;SDS011;18810;53.040;8.850;2023-07-24T10:28:32;4.70;;;4.30;;
32333;SDS011;18810;53.040;8.850;2023-07-24T10:31:00;6.47;;;4.50;;
32333;SDS011;18810;53.040;8.850;2023-07-24T10:33:29;4.50;;;4.03;;
32333;SDS011;18810;53.040;8.850;2023-07-24T10:36:04;4.65;;;4.10;;
32333;SDS011;18810;53.040;8.850;2023-07-24T10:38:39;5.57;;;4.63;;
32333;SDS011;18810;53.040;8.850;2023-07-24T10:43:51;5.30;;;4.80;;
32333;SDS011;18810;53.040;8.850;2023-07-24T10:46:17;5.93;;;5.32;;
32333;SDS011;18810;53.040;8.850;2023-07-24T10:48:45;5.75;;;5.25;;
32333;SDS011;18810;53.040;8.850;2023-07-24T10:51:12;5.35;;;4.85;;
32333;SDS011;18810;53.040;8.850;2023-07-24T10:53:43;6.40;;;5.15;;
32333;SDS011;18810;53.040;8.850;2023-07-24T10:56:10;6.75;;;5.88;;
32333;SDS011;18810;53.040;8.850;2023-07-24T10:58:36;6.28;;;5.78;;
32333;SDS011;18810;53.040;8.850;2023-07-24T11:01:05;6.38;;;5.75;;
32333;SDS011;18810;53.040;8.850;2023-07-24T11:03:32;7.32;;;6.63;;
32333;SDS011;18810;53.040;8.850;2023-07-24T11:06:00;7.22;;;6.50;;
32333;SDS011;18810;53.040;8.850;2023-07-24T11:08:27;6.55;;;5.95;;
32333;SDS011;18810;53.040;8.850;2023-07-24T11:10:54;6.10;;;5.43;;
32333;SDS011;18810;53.040;8.850;2023-07-24T11:13:25;6.05;;;5.32;;
32333;SDS011;18810;53.040;8.850;2023-07-24T11:18:19;6.05;;;5.55;;
32333;SDS011;18810;53.040;8.850;2023-07-24T11:20:52;7.13;;;6.53;;
32333;SDS011;18810;53.040;8.850;2023-07-24T11:23:19;7.53;;;6.82;;
32333;SDS011;18810;53.040;8.850;2023-07-24T11:25:45;7.65;;;6.75;;
32333;SDS011;18810;53.040;8.850;2023-07-24T11:28:12;7.68;;;6.63;;
32333;SDS011;18810;53.040;8.850;2023-07-24T11:30:39;7.13;;;6.43;;
32333;SDS011;18810;53.040;8.850;2023-07-24T11:33:05;7.68;;;6.97;;
32333;SDS011;18810;53.040;8.850;2023-07-24T11:35:33;7.25;;;6.55;;
32333;SDS011;18810;53.040;8.850;2023-07-24T11:38:00;7.70;;;7.00;;
32333;SDS011;18810;53.040;8.850;2023-07-24T11:40:36;8.38;;;7.53;;
32333;SDS011;18810;53.040;8.850;2023-07-24T11:43:14;8.30;;;7.40;;
32333;SDS011;18810;53.040;8.850;2023-07-24T11:45:44;8.10;;;7.10;;
32333;SDS011;18810;53.040;8.850;2023-07-24T11:48:13;8.52;;;7.72;;
32333;SDS011;18810;53.040;8.850;2023-07-24T11:50:45;7.80;;;7.10;;
32333;SDS011;18810;53.040;8.850;2023-07-24T11:55:56;7.40;;;6.70;;
32333;SDS011;18810;53.040;8.850;2023-07-24T11:58:26;8.85;;;7.05;;
32333;SDS011;18810;53.040;8.850;2023-07-24T12:00:53;8.25;;;7.35;;
32333;SDS011;18810;53.040;8.850;2023-07-24T12:03:26;7.50;;;6.80;;
32333;SDS011;18810;53.040;8.850;2023-07-24T12:05:52;7.72;;;6.80;;
32333;SDS011;18810;53.040;8.850;2023-07-24T12:08:20;7.75;;;6.93;;
32333;SDS011;18810;53.040;8.850;2023-07-24T12:10:48;7.90;;;7.15;;
32333;SDS011;18810;53.040;8.850;2023-07-24T12:13:14;7.85;;;6.32;;
32333;SDS011;18810;53.040;8.850;2023-07-24T12:15:40;7.43;;;6.72;;
32333;SDS011;18810;53.040;8.850;2023-07-24T12:18:06;8.32;;;6.38;;
32333;SDS011;18810;53.040;8.850;2023-07-24T12:20:32;8.10;;;6.97;;
32333;SDS011;18810;53.040;8.850;2023-07-24T12:22:59;8.73;;;7.35;;
32333;SDS011;18810;53.040;8.850;2023-07-24T12:25:25;7.88;;;7.07;;
32333;SDS011;18810;53.040;8.850;2023-07-24T12:27:50;7.68;;;6.65;;
32333;SDS011;18810;53.040;8.850;2023-07-24T12:30:16;6.90;;;5.90;;
32333;SDS011;18810;53.040;8.850;2023-07-24T12:32:43;8.48;;;6.60;;
32333;SDS011;18810;53.040;8.850;2023-07-24T12:35:09;7.05;;;6.38;;
32333;SDS011;18810;53.040;8.850;2023-07-24T12:37:35;7.75;;;6.80;;
32333;SDS011;18810;53.040;8.850;2023-07-24T12:40:01;8.55;;;6.60;;
32333;SDS011;18810;53.040;8.850;2023-07-24T12:42:27;7.55;;;6.78;;
32333;SDS011;18810;53.040;8.850;2023-07-24T12:44:53;9.55;;;6.35;;
32333;SDS011;18810;53.040;8.850;2023-07-24T12:47:18;7.57;;;6.85;;
32333;SDS011;18810;53.040;8.850;2023-07-24T12:49:44;8.88;;;6.85;;
32333;SDS011;18810;53.040;8.850;2023-07-24T12:52:09;8.13;;;6.85;;
32333;SDS011;18810;53.040;8.850;2023-07-24T12:54:36;7.78;;;6.38;;
32333;SDS011;18810;53.040;8.850;2023-07-24T12:57:02;7.85;;;6.63;;
32333;SDS011;18810;53.040;8.850;2023-07-24T12:59:28;7.30;;;6.60;;
32333;SDS011;18810;53.040;8.850;2023-07-24T13:01:54;6.68;;;6.07;;
32333;SDS011;18810;53.040;8.850;2023-07-24T13:04:20;7.65;;;6.65;;
32333;SDS011;18810;53.040;8.850;2023-07-24T13:06:47;6.75;;;6.13;;
32333;SDS011;18810;53.040;8.850;2023-07-24T13:09:12;8.20;;;7.07;;
32333;SDS011;18810;53.040;8.850;2023-07-24T13:11:38;7.93;;;7.00;;
32333;SDS011;18810;53.040;8.850;2023-07-24T13:14:03;7.65;;;6.60;;
32333;SDS011;18810;53.040;8.850;2023-07-24T13:16:29;7.55;;;6.75;;
32333;SDS011;18810;53.040;8.850;2023-07-24T13:18:55;9.70;;;6.57;;
32333;SDS011;18810;53.040;8.850;2023-07-24T13:21:20;7.53;;;6.78;;
32333;SDS011;18810;53.040;8.850;2023-07-24T13:23:46;7.35;;;6.47;;
32333;SDS011;18810;53.040;8.850;2023-07-24T13:26:12;8.35;;;6.50;;
32333;SDS011;18810;53.040;8.850;2023-07-24T13:28:41;7.38;;;6.43;;
32333;SDS011;18810;53.040;8.850;2023-07-24T13:31:13;7.35;;;6.40;;
32333;SDS011;18810;53.040;8.850;2023-07-24T13:33:40;7.30;;;6.45;;
32333;SDS011;18810;53.040;8.850;2023-07-24T13:36:06;8.68;;;6.15;;
32333;SDS011;18810;53.040;8.850;2023-07-24T13:38:32;7.82;;;5.40;;
32333;SDS011;18810;53.040;8.850;2023-07-24T13:40:57;5.70;;;5.10;;
32333;SDS011;18810;53.040;8.850;2023-07-24T13:43:23;7.63;;;5.65;;
32333;SDS011;18810;53.040;8.850;2023-07-24T13:45:49;6.55;;;5.32;;
32333;SDS011;18810;53.040;8.850;2023-07-24T13:48:15;6.07;;;5.45;;
32333;SDS011;18810;53.040;8.850;2023-07-24T13:50:40;7.85;;;5.22;;
32333;SDS011;18810;53.040;8.850;2023-07-24T13:53:06;6.03;;;5.38;;
32333;SDS011;18810;53.040;8.850;2023-07-24T13:55:31;5.85;;;5.35;;
32333;SDS011;18810;53.040;8.850;2023-07-24T13:57:57;9.15;;;5.43;;
32333;SDS011;18810;53.040;8.850;2023-07-24T14:00:22;6.07;;;4.95;;
32333;SDS011;18810;53.040;8.850;2023-07-24T14:02:48;6.32;;;5.00;;
32333;SDS011;18810;53.040;8.850;2023-07-24T14:05:15;6.10;;;5.20;;
32333;SDS011;18810;53.040;8.850;2023-07-24T14:07:41;6.82;;;5.80;;
32333;SDS011;18810;53.040;8.850;2023-07-24T14:10:07;6.57;;;5.63;;
32333;SDS011;18810;53.040;8.850;2023-07-24T14:12:33;7.22;;;5.53;;
32333;SDS011;18810;53.040;8.850;2023-07-24T14:14:59;5.72;;;4.95;;
32333;SDS011;18810;53.040;8.850;2023-07-24T14:17:25;6.82;;;6.03;;
32333;SDS011;18810;53.040;8.850;2023-07-24T14:19:51;8.18;;;5.30;;
32333;SDS011;18810;53.040;8.850;2023-07-24T14:22:16;5.72;;;5.15;;
32333;SDS011;18810;53.040;8.850;2023-07-24T14:24:42;6.00;;;5.22;;
32333;SDS011;18810;53.040;8.850;2023-07-24T14:27:08;5.80;;;5.20;;
32333;SDS011;18810;53.040;8.850;2023-07-24T14:29:33;5.82;;;5.18;;
32333;SDS011;18810;53.040;8.850;2023-07-24T14:31:59;5.25;;;4.60;;
32333;SDS011;18810;53.040;8.850;2023-07-24T14:34:24;6.57;;;5.00;;
32333;SDS011;18810;53.040;8.850;2023-07-24T14:36:50;6.38;;;4.70;;
32333;SDS011;18810;53.040;8.850;2023-07-24T14:39:17;6.90;;;5.18;;
32333;SDS011;18810;53.040;8.850;2023-07-24T14:41:43;8.13;;;5.53;;
32333;SDS011;18810;53.040;8.850;2023-07-24T14:44:08;5.63;;;5.03;;
32333;SDS011;18810;53.040;8.850;2023-07-24T14:46:35;6.93;;;4.60;;
32333;SDS011;18810;53.040;8.850;2023-07-24T14:49:01;7.75;;;4.53;;
32333;SDS011;18810;53.040;8.850;2023-07-24T14:51:26;5.28;;;4.47;;
32333;SDS011;18810;53.040;8.850;2023-07-24T14:53:52;5.70;;;5.20;;
32333;SDS011;18810;53.040;8.850;2023-07-24T14:56:18;5.03;;;4.20;;
32333;SDS011;18810;53.040;8.850;2023-07-24T14:58:44;4.47;;;3.80;;